createdAt,value
2023-03-22T00:02:07.840Z,100692.03
2023-03-22T00:04:34.420Z,100693.88
2023-03-22T00:07:01.012Z,100693.84
2023-03-22T00:09:27.639Z,100684.88
2023-03-22T00:11:54.230Z,100693.88
2023-03-22T00:14:24.154Z,100687.69
2023-03-22T00:16:50.758Z,100675.16
2023-03-22T00:19:17.589Z,100681.38
2023-03-22T00:21:44.444Z,100681.44
2023-03-22T00:24:11.114Z,100667.22
2023-03-22T00:26:37.885Z,100670.78
2023-03-22T00:29:04.970Z,100670.78
2023-03-22T00:31:31.670Z,100663.69
2023-03-22T00:33:58.259Z,100662.78
2023-03-22T00:36:24.850Z,100661.06
2023-03-22T00:38:51.967Z,100660.97
2023-03-22T00:41:23.547Z,100655.66
2023-03-22T00:43:51.336Z,100658.28
2023-03-22T00:46:20.012Z,100654.78
2023-03-22T00:48:46.683Z,100654.84
2023-03-22T00:51:14.344Z,100651.22
2023-03-22T00:53:43.131Z,100648.47
2023-03-22T00:56:13.771Z,100651.22
2023-03-22T00:58:40.933Z,100642.31
2023-03-22T01:01:07.855Z,100647.78
2023-03-22T01:03:35.013Z,100631.59
2023-03-22T01:06:01.631Z,100636.03
2023-03-22T01:08:33.142Z,100628.91
2023-03-22T01:11:01.314Z,100633.38
2023-03-22T01:13:29.013Z,100621.78
2023-03-22T01:15:57.339Z,100628.13
2023-03-22T01:18:23.996Z,100616.50
2023-03-22T01:20:51.530Z,100611.16
2023-03-22T01:23:18.197Z,100620.03
2023-03-22T01:25:44.740Z,100611.94
2023-03-22T01:28:11.365Z,100607.56
2023-03-22T01:30:40.600Z,100604.03
2023-03-22T01:33:07.768Z,100609.41
2023-03-22T01:35:35.532Z,100596.88
2023-03-22T01:38:02.127Z,100600.50
2023-03-22T01:40:29.016Z,100604.13
2023-03-22T01:42:56.106Z,100593.28
2023-03-22T01:45:22.663Z,100595.22
2023-03-22T01:47:54.163Z,100589.78
2023-03-22T01:50:21.285Z,100581.00
2023-03-22T01:52:49.651Z,100586.31
2023-03-22T01:55:18.298Z,100574.72
2023-03-22T01:57:45.696Z,100580.06
2023-03-22T02:00:15.250Z,100571.91
2023-03-22T02:02:43.927Z,100574.66
2023-03-22T02:05:12.315Z,100569.38
2023-03-22T02:07:39.901Z,100564.00
2023-03-22T02:10:19.124Z,100563.09
2023-03-22T02:13:07.099Z,100558.66
2023-03-22T02:15:47.229Z,100561.31
2023-03-22T02:18:28.627Z,100551.53
2023-03-22T02:21:03.935Z,100550.66
2023-03-22T02:23:48.752Z,100548.72
2023-03-22T02:26:47.082Z,100548.00
2023-03-22T02:29:30.123Z,100549.75
2023-03-22T02:32:15.879Z,100551.44
2023-03-22T02:34:59.742Z,100541.66
2023-03-22T02:37:47.174Z,100540.84
2023-03-22T02:40:17.680Z,100535.44
2023-03-22T02:43:15.537Z,100536.34
2023-03-22T02:45:46.350Z,100528.41
2023-03-22T02:48:18.991Z,100533.66
2023-03-22T02:50:54.854Z,100534.66
2023-03-22T02:53:26.505Z,100533.75
2023-03-22T02:55:59.462Z,100531.16
2023-03-22T02:58:38.206Z,100539.09
2023-03-22T03:01:09.739Z,100536.44
2023-03-22T03:03:40.195Z,100524.84
2023-03-22T03:06:15.283Z,100527.56
2023-03-22T03:08:43.021Z,100532.88
2023-03-22T03:11:10.068Z,100531.94
2023-03-22T03:13:36.644Z,100523.03
2023-03-22T03:16:07.568Z,100523.03
2023-03-22T03:18:55.946Z,100521.31
2023-03-22T03:21:45.386Z,100523.13
2023-03-22T03:24:23.622Z,100523.06
2023-03-22T03:27:14.954Z,100505.19
2023-03-22T03:29:53.378Z,100500.88
2023-03-22T03:32:46.226Z,100499.03
2023-03-22T03:35:22.653Z,100492.78
2023-03-22T03:38:14.770Z,100484.78
2023-03-22T03:40:44.311Z,100485.75
2023-03-22T03:43:11.322Z,100491.03
2023-03-22T03:45:38.539Z,100488.41
2023-03-22T03:48:08.757Z,100491.06
2023-03-22T03:50:35.506Z,100483.06
2023-03-22T03:53:02.850Z,100479.47
2023-03-22T03:55:30.474Z,100482.06
2023-03-22T03:57:57.059Z,100481.25
2023-03-22T04:00:23.725Z,100469.72
2023-03-22T04:02:55.932Z,100466.06
2023-03-22T04:05:22.958Z,100471.41
2023-03-22T04:07:49.572Z,100462.59
2023-03-22T04:10:16.167Z,100462.59
2023-03-22T04:12:42.794Z,100461.69
2023-03-22T04:15:10.473Z,100454.56
2023-03-22T04:17:39.956Z,100458.09
2023-03-22T04:20:10.854Z,100463.44
2023-03-22T04:22:39.100Z,100462.63
2023-03-22T04:25:11.700Z,100471.56
2023-03-22T04:27:42.327Z,100465.28
2023-03-22T04:30:12.404Z,100466.22
2023-03-22T04:32:41.007Z,100455.56
2023-03-22T04:35:10.450Z,100459.09
2023-03-22T04:37:37.052Z,100458.94
2023-03-22T04:40:07.278Z,100449.25
2023-03-22T04:42:36.678Z,100451.94
2023-03-22T04:45:06.162Z,100443.91
2023-03-22T04:47:33.928Z,100444.84
2023-03-22T04:50:03.998Z,100448.31
2023-03-22T04:52:30.692Z,100442.97
2023-03-22T04:54:57.255Z,100442.97
2023-03-22T04:57:24.729Z,100434.19
2023-03-22T04:59:51.287Z,100421.72
2023-03-22T05:02:17.884Z,100422.56
2023-03-22T05:04:44.665Z,100419.94
2023-03-22T05:07:11.227Z,100411.81
2023-03-22T05:09:37.821Z,100405.69
2023-03-22T05:12:04.412Z,100414.53
2023-03-22T05:14:37.169Z,100404.78
2023-03-22T05:17:03.848Z,100404.81
2023-03-22T05:19:30.583Z,100402.16
2023-03-22T05:21:58.830Z,100403.06
2023-03-22T05:24:25.602Z,100390.59
2023-03-22T05:26:53.921Z,100393.22
2023-03-22T05:29:21.470Z,100391.47
2023-03-22T05:31:48.526Z,100390.56
2023-03-22T05:34:18.003Z,100376.34
2023-03-22T05:36:44.627Z,100370.09
2023-03-22T05:39:13.185Z,100381.72
2023-03-22T05:41:39.792Z,100364.75
2023-03-22T05:44:06.430Z,100365.69
2023-03-22T05:46:33.143Z,100374.53
2023-03-22T05:49:01.312Z,100367.41
2023-03-22T05:51:27.885Z,100359.47
2023-03-22T05:53:54.545Z,100360.28
2023-03-22T05:56:25.132Z,100362.16
2023-03-22T05:58:54.449Z,100364.00
2023-03-22T06:01:21.509Z,100357.59
2023-03-22T06:03:48.820Z,100360.16
2023-03-22T06:06:17.182Z,100362.94
2023-03-22T06:08:44.308Z,100354.03
2023-03-22T06:11:13.879Z,100362.88
2023-03-22T06:13:40.517Z,100360.16
2023-03-22T06:16:08.801Z,100359.41
2023-03-22T06:18:35.451Z,100352.25
2023-03-22T06:21:02.184Z,100349.59
2023-03-22T06:23:28.845Z,100344.28
2023-03-22T06:25:55.459Z,100332.53
2023-03-22T06:28:22.248Z,100328.22
2023-03-22T06:30:52.704Z,100330.88
2023-03-22T06:33:19.499Z,100330.03
2023-03-22T06:35:47.274Z,100330.88
2023-03-22T06:38:13.874Z,100325.53
2023-03-22T06:40:43.043Z,100334.47
2023-03-22T06:43:10.411Z,100324.63
2023-03-22T06:45:36.997Z,100330.81
2023-03-22T06:48:03.895Z,100329.03
2023-03-22T06:50:30.494Z,100327.31
2023-03-22T06:52:57.117Z,100330.88
2023-03-22T06:55:25.305Z,100329.97
2023-03-22T06:57:54.641Z,100331.47
2023-03-22T07:00:24.307Z,100334.56
2023-03-22T07:02:56.780Z,100331.91
2023-03-22T07:05:26.058Z,100328.94
2023-03-22T07:07:52.665Z,100333.00
2023-03-22T07:10:19.285Z,100336.22
2023-03-22T07:12:45.854Z,100337.69
2023-03-22T07:15:12.577Z,100326.53
2023-03-22T07:17:40.927Z,100320.97
2023-03-22T07:20:09.655Z,100329.75
2023-03-22T07:22:36.237Z,100335.13
2023-03-22T07:25:02.860Z,100333.19
2023-03-22T07:27:29.801Z,100327.00
2023-03-22T07:29:59.184Z,100328.84
2023-03-22T07:32:25.848Z,100322.53
2023-03-22T07:34:55.090Z,100321.72
2023-03-22T07:37:21.674Z,100312.78
2023-03-22T07:39:48.233Z,100310.09
2023-03-22T07:42:14.873Z,100312.78
2023-03-22T07:44:42.071Z,100314.75
2023-03-22T07:47:08.738Z,100311.19
2023-03-22T07:49:41.231Z,100294.31
2023-03-22T07:52:08.052Z,100294.41
2023-03-22T07:54:40.048Z,100297.94
2023-03-22T07:57:06.952Z,100287.13
2023-03-22T07:59:40.268Z,100287.13
2023-03-22T08:02:06.998Z,100304.53
2023-03-22T08:04:34.219Z,100309.72
2023-03-22T08:07:00.892Z,100303.47
2023-03-22T08:09:27.497Z,100296.31
2023-03-22T08:11:57.091Z,100287.34
2023-03-22T08:14:35.439Z,100285.47
2023-03-22T08:17:02.772Z,100287.34
2023-03-22T08:19:33.153Z,100297.53
2023-03-22T08:22:03.782Z,100285.00
2023-03-22T08:24:30.367Z,100288.75
2023-03-22T08:26:57.680Z,100282.72
2023-03-22T08:29:24.442Z,100279.19
2023-03-22T08:31:54.993Z,100285.47
2023-03-22T08:34:24.742Z,100278.88
2023-03-22T08:36:51.419Z,100278.72
2023-03-22T08:39:19.273Z,100279.66
2023-03-22T08:41:48.847Z,100285.00
2023-03-22T08:44:15.720Z,100277.81
2023-03-22T08:46:42.271Z,100267.09
2023-03-22T08:49:10.442Z,100276.91
2023-03-22T08:51:37.033Z,100279.50
2023-03-22T08:54:04.386Z,100276.06
2023-03-22T08:56:39.266Z,100282.28
2023-03-22T08:59:08.146Z,100285.00
2023-03-22T09:01:35.933Z,100284.88
2023-03-22T09:04:10.637Z,100286.75
2023-03-22T09:06:39.106Z,100288.75
2023-03-22T09:09:08.018Z,100286.75
2023-03-22T09:11:37.313Z,100273.38
2023-03-22T09:14:08.283Z,100272.63
2023-03-22T09:16:35.106Z,100276.22
2023-03-22T09:19:06.063Z,100279.72
2023-03-22T09:21:32.661Z,100270.84
2023-03-22T09:24:05.263Z,100277.97
2023-03-22T09:26:32.132Z,100268.94
2023-03-22T09:29:01.574Z,100280.75
2023-03-22T09:31:28.406Z,100279.03
2023-03-22T09:33:54.990Z,100285.16
2023-03-22T09:36:27.322Z,100281.63
2023-03-22T09:38:56.535Z,100274.44
2023-03-22T09:41:27.236Z,100294.16
2023-03-22T09:43:58.215Z,100277.16
2023-03-22T09:46:31.177Z,100277.81
2023-03-22T09:48:59.407Z,100275.44
2023-03-22T09:51:36.170Z,100274.44
2023-03-22T09:54:02.802Z,100276.16
2023-03-22T09:56:32.714Z,100278.88
2023-03-22T09:59:16.857Z,100277.97
2023-03-22T10:02:10.794Z,100287.88
2023-03-22T10:04:46.497Z,100282.44
2023-03-22T10:07:33.503Z,100286.91
2023-03-22T10:10:20.781Z,100292.28
2023-03-22T10:13:07.666Z,100290.56
2023-03-22T10:15:40.168Z,100279.81
2023-03-22T10:18:12.037Z,100286.03
2023-03-22T10:20:54.153Z,100278.03
2023-03-22T10:23:28.947Z,100286.03
2023-03-22T10:25:57.140Z,100283.38
2023-03-22T10:28:37.612Z,100286.13
2023-03-22T10:31:05.872Z,100286.13
2023-03-22T10:33:50.430Z,100286.00
2023-03-22T10:36:21.477Z,100288.75
2023-03-22T10:38:54.042Z,100290.56
2023-03-22T10:41:24.311Z,100289.59
2023-03-22T10:43:56.125Z,100287.13
2023-03-22T10:46:29.185Z,100283.47
2023-03-22T10:49:00.219Z,100307.44
2023-03-22T10:51:34.690Z,100314.44
2023-03-22T10:54:04.123Z,100294.03
2023-03-22T10:56:30.878Z,100304.81
2023-03-22T10:59:00.425Z,100307.44
2023-03-22T11:01:28.529Z,100310.81
2023-03-22T11:04:15.278Z,100299.25
2023-03-22T11:06:54.811Z,100295.91
2023-03-22T11:09:24.423Z,100300.31
2023-03-22T11:11:53.528Z,100292.38
2023-03-22T11:14:22.794Z,100304.81
2023-03-22T11:16:56.475Z,100296.00
2023-03-22T11:19:31.623Z,100286.06
2023-03-22T11:21:59.629Z,100283.47
2023-03-22T11:24:27.867Z,100288.03
2023-03-22T11:27:25.762Z,100281.78
2023-03-22T11:29:59.618Z,100286.97
2023-03-22T11:32:30.590Z,100283.47
2023-03-22T11:35:05.001Z,100284.25
2023-03-22T11:37:44.431Z,100288.84
2023-03-22T11:40:23.571Z,100281.72
2023-03-22T11:42:53.803Z,100291.31
2023-03-22T11:45:37.229Z,100288.94
2023-03-22T11:48:09.485Z,100296.56
2023-03-22T11:50:39.750Z,100287.75
2023-03-22T11:53:11.661Z,100293.03
2023-03-22T11:55:38.453Z,100286.66
2023-03-22T11:58:10.557Z,100299.16
2023-03-22T12:00:37.873Z,100303.84
2023-03-22T12:03:13.933Z,100311.84
2023-03-22T12:05:43.464Z,100318.03
2023-03-22T12:08:24.413Z,100319.75
2023-03-22T12:10:56.610Z,100334.97
2023-03-22T12:13:51.424Z,100338.50
2023-03-22T12:16:25.785Z,100334.88
2023-03-22T12:19:13.632Z,100322.53
2023-03-22T12:21:41.012Z,100309.94
2023-03-22T12:24:21.427Z,100311.84
2023-03-22T12:26:48.475Z,100315.50
2023-03-22T12:29:19.010Z,100315.56
2023-03-22T12:32:01.745Z,100319.09
2023-03-22T12:34:48.153Z,100319.03
2023-03-22T12:37:37.092Z,100320.88
2023-03-22T12:40:17.900Z,100323.50
2023-03-22T12:42:55.491Z,100311.84
2023-03-22T12:45:27.126Z,100310.00
2023-03-22T12:48:08.328Z,100316.38
2023-03-22T12:50:41.836Z,100308.34
2023-03-22T12:53:13.672Z,100317.91
2023-03-22T12:55:41.509Z,100310.91
2023-03-22T12:58:09.672Z,100311.84
2023-03-22T13:01:08.594Z,100317.06
2023-03-22T13:03:45.120Z,100317.91
2023-03-22T13:06:44.328Z,100317.03
2023-03-22T13:09:20.055Z,100319.03
2023-03-22T13:11:53.260Z,100314.41
2023-03-22T13:14:51.032Z,100318.91
2023-03-22T13:17:25.728Z,100324.25
2023-03-22T13:19:55.389Z,100329.50
2023-03-22T13:22:27.940Z,100328.59
2023-03-22T13:25:10.218Z,100316.91
2023-03-22T13:27:43.626Z,100324.09
2023-03-22T13:30:23.973Z,100317.84
2023-03-22T13:33:15.055Z,100315.06
2023-03-22T13:35:50.991Z,100320.50
2023-03-22T13:38:29.763Z,100322.34
2023-03-22T13:41:22.089Z,100324.16
2023-03-22T13:43:55.813Z,100316.91
2023-03-22T13:46:22.466Z,100324.03
2023-03-22T13:48:52.283Z,100324.84
2023-03-22T13:51:21.892Z,100325.78
2023-03-22T13:54:04.881Z,100325.13
2023-03-22T13:56:52.494Z,100314.25
2023-03-22T13:59:25.662Z,100318.75
2023-03-22T14:02:07.607Z,100323.03
2023-03-22T14:04:39.375Z,100319.59
2023-03-22T14:07:29.033Z,100310.66
2023-03-22T14:10:11.325Z,100315.16
2023-03-22T14:12:51.748Z,100320.34
2023-03-22T14:15:28.246Z,100323.88
2023-03-22T14:18:01.180Z,100312.06
2023-03-22T14:20:32.770Z,100304.09
